Time;durP1;ratioP1;P1;durP2;ratioP2;P2;SDS_P1;SDS_P2;PMS_P1;PMS_P2;Temp;Humidity;BMP_temperature;BMP_pressure;BME280_temperature;BME280_humidity;BME280_pressure;Samples;Min_cycle;Max_cycle;Signal;HPM_P1;HPM_P2
2024/01/18 00:02:07;;;;;;;7.75;4.18;;;-2.50;99.90;;;;;;5006645;28;20093;-75
2024/01/18 00:04:32;;;;;;;6.57;4.68;;;-2.50;99.90;;;;;;5004298;28;20068;-75
2024/01/18 00:06:58;;;;;;;10.73;5.00;;;-2.50;99.90;;;;;;5021230;28;20045;-75
2024/01/18 00:09:24;;;;;;;5.40;3.72;;;-2.50;99.90;;;;;;5006951;28;20128;-75
2024/01/18 00:11:50;;;;;;;9.23;4.63;;;-2.50;99.90;;;;;;4999658;28;20053;-75
2024/01/18 00:14:15;;;;;;;5.80;3.95;;;-2.50;99.90;;;;;;5051964;28;20056;-75
2024/01/18 00:16:41;;;;;;;6.22;4.97;;;-2.50;99.90;;;;;;5003374;28;20038;-75
2024/01/18 00:19:07;;;;;;;8.50;5.03;;;-2.50;99.90;;;;;;5005055;28;20060;-75
2024/01/18 00:21:33;;;;;;;7.30;4.30;;;-2.50;99.90;;;;;;5005452;28;20748;-75
2024/01/18 00:23:58;;;;;;;12.40;5.18;;;-2.50;99.90;;;;;;5011738;28;20045;-75
2024/01/18 00:26:24;;;;;;;8.10;4.05;;;-2.40;99.90;;;;;;5003297;28;20065;-75
2024/01/18 00:28:50;;;;;;;15.32;3.65;;;-2.30;99.90;;;;;;4995761;28;20041;-75
2024/01/18 00:31:15;;;;;;;7.80;4.43;;;-2.30;99.90;;;;;;5021028;28;20030;-75
2024/01/18 00:33:41;;;;;;;6.70;3.28;;;-2.20;99.90;;;;;;5004605;28;20100;-75
2024/01/18 00:36:07;;;;;;;7.65;2.65;;;-2.20;99.90;;;;;;5005668;28;20072;-75
2024/01/18 00:38:32;;;;;;;6.65;3.22;;;-2.20;99.90;;;;;;4995388;28;20038;-75
2024/01/18 00:40:58;;;;;;;5.38;2.75;;;-2.20;99.90;;;;;;5016839;28;20456;-75
2024/01/18 00:43:24;;;;;;;7.40;3.33;;;-2.20;99.90;;;;;;5015428;28;20124;-75
2024/01/18 00:45:49;;;;;;;4.15;2.50;;;-2.20;99.90;;;;;;5032928;28;20049;-75
2024/01/18 00:48:15;;;;;;;9.98;4.13;;;-2.20;99.90;;;;;;5024211;28;20336;-75
2024/01/18 00:50:41;;;;;;;5.15;3.13;;;-2.20;99.90;;;;;;4996343;28;20048;-75
2024/01/18 00:53:06;;;;;;;3.35;2.70;;;-2.20;99.90;;;;;;4985440;28;20046;-76
2024/01/18 00:55:36;;;;;;;2.38;1.77;;;-2.10;99.90;;;;;;4990066;28;20152;-76
2024/01/18 00:58:01;;;;;;;3.53;3.22;;;-2.20;99.90;;;;;;5006047;28;20049;-76
2024/01/18 01:00:27;;;;;;;6.07;3.28;;;-2.20;99.90;;;;;;5017694;28;20064;-75
2024/01/18 01:02:53;;;;;;;3.05;2.30;;;-2.30;99.90;;;;;;5019859;28;20034;-76
2024/01/18 01:05:19;;;;;;;5.78;3.53;;;-2.30;99.90;;;;;;5038234;28;20103;-75
2024/01/18 01:07:45;;;;;;;10.88;3.15;;;-2.40;99.90;;;;;;5005627;28;20080;-76
2024/01/18 01:10:10;;;;;;;3.42;2.40;;;-2.40;99.90;;;;;;4989971;28;20038;-75
2024/01/18 01:12:36;;;;;;;3.22;1.98;;;-2.40;99.90;;;;;;5016064;28;20056;-75
2024/01/18 01:15:02;;;;;;;6.22;1.52;;;-2.30;99.90;;;;;;4982344;28;20556;-76
2024/01/18 01:17:28;;;;;;;4.78;1.95;;;-2.30;99.90;;;;;;5033079;28;20046;-76
2024/01/18 01:19:54;;;;;;;15.93;3.75;;;-2.30;99.90;;;;;;5002414;28;20118;-76
2024/01/18 01:22:20;;;;;;;5.18;2.10;;;-2.30;99.90;;;;;;4990533;28;20068;-76
2024/01/18 01:24:46;;;;;;;5.65;3.47;;;-2.20;99.90;;;;;;4985704;28;20054;-75
2024/01/18 01:27:12;;;;;;;4.15;2.58;;;-2.20;99.90;;;;;;5000718;28;20033;-76
2024/01/18 01:29:38;;;;;;;2.13;2.00;;;-2.10;99.90;;;;;;4998209;28;20077;-76
2024/01/18 01:32:03;;;;;;;5.32;2.00;;;-2.20;99.90;;;;;;5017400;28;20133;-76
2024/01/18 01:34:29;;;;;;;2.80;2.35;;;-2.20;99.90;;;;;;5000993;28;20050;-75
2024/01/18 01:36:55;;;;;;;2.20;1.70;;;-2.20;99.90;;;;;;5032115;28;20045;-76
2024/01/18 01:39:20;;;;;;;8.35;3.25;;;-2.20;99.90;;;;;;4992731;28;20047;-76
2024/01/18 01:41:46;;;;;;;7.57;3.72;;;-2.20;99.90;;;;;;5036462;28;20048;-75
2024/01/18 01:44:12;;;;;;;7.45;3.60;;;-2.20;99.90;;;;;;5002495;28;20124;-76
2024/01/18 01:46:37;;;;;;;7.10;3.30;;;-2.20;99.90;;;;;;5035651;28;20070;-75
2024/01/18 01:49:05;;;;;;;5.97;2.90;;;-2.20;99.90;;;;;;4986776;28;20044;-76
2024/01/18 01:51:52;;;;;;;2.50;1.90;;;-2.30;99.90;;;;;;5013918;28;20045;-76
2024/01/18 01:54:20;;;;;;;4.15;2.17;;;-2.40;99.90;;;;;;5052667;28;20072;-75
2024/01/18 01:56:51;;;;;;;3.10;2.80;;;-2.40;99.90;;;;;;5005671;28;20128;-76
2024/01/18 01:59:18;;;;;;;3.38;1.55;;;-2.50;99.90;;;;;;5018951;28;20037;-76
2024/01/18 02:01:45;;;;;;;9.63;3.80;;;-2.50;99.90;;;;;;5016158;28;20046;-76
2024/01/18 02:04:12;;;;;;;3.60;2.22;;;-2.60;99.90;;;;;;5018848;28;20044;-76
2024/01/18 02:06:39;;;;;;;4.25;2.20;;;-2.60;99.90;;;;;;5037776;28;20115;-76
2024/01/18 02:09:06;;;;;;;3.90;2.53;;;-2.70;99.90;;;;;;5020850;28;20124;-76
2024/01/18 02:11:32;;;;;;;1.58;1.45;;;-2.70;99.90;;;;;;5009930;28;20124;-76
2024/01/18 02:13:57;;;;;;;3.00;1.42;;;-2.70;99.90;;;;;;5005724;28;20041;-76
2024/01/18 02:16:24;;;;;;;6.80;1.83;;;-2.70;99.90;;;;;;5002436;28;20048;-76
2024/01/18 02:18:49;;;;;;;2.30;1.77;;;-2.80;99.90;;;;;;5020636;28;20050;-76
2024/01/18 02:21:15;;;;;;;4.57;1.85;;;-2.80;99.90;;;;;;5002863;28;20047;-76
2024/01/18 02:23:45;;;;;;;3.63;1.70;;;-2.80;99.90;;;;;;5035062;28;20041;-76
2024/01/18 02:26:10;;;;;;;4.80;1.52;;;-2.80;99.90;;;;;;5013549;28;20049;-76
2024/01/18 02:28:36;;;;;;;3.72;1.92;;;-2.80;99.90;;;;;;4999852;28;20500;-76
2024/01/18 02:31:02;;;;;;;2.92;1.27;;;-2.90;99.90;;;;;;5003460;28;20146;-76
2024/01/18 02:33:28;;;;;;;5.53;2.92;;;-2.90;99.90;;;;;;5015111;28;20057;-76
2024/01/18 02:35:54;;;;;;;2.58;2.20;;;-2.90;99.90;;;;;;5002290;28;20569;-76
2024/01/18 02:38:20;;;;;;;2.40;2.20;;;-2.90;99.90;;;;;;5017136;28;20046;-76
2024/01/18 02:40:46;;;;;;;4.00;2.67;;;-2.90;99.90;;;;;;5001515;28;20061;-76
2024/01/18 02:43:12;;;;;;;1.63;1.27;;;-2.90;99.90;;;;;;5016507;28;20069;-76
2024/01/18 02:45:38;;;;;;;1.88;1.70;;;-2.90;99.90;;;;;;5002195;28;20041;-76
2024/01/18 02:48:04;;;;;;;1.90;1.80;;;-2.90;99.90;;;;;;4999873;28;20757;-76
2024/01/18 02:50:30;;;;;;;3.90;2.63;;;-2.90;99.90;;;;;;4995848;28;20038;-76
2024/01/18 02:52:55;;;;;;;12.77;2.60;;;-3.00;99.90;;;;;;4984347;28;20106;-76
2024/01/18 02:55:21;;;;;;;3.05;2.17;;;-3.00;99.90;;;;;;4995583;28;20040;-77
2024/01/18 02:57:47;;;;;;;0.70;0.70;;;-3.00;99.90;;;;;;5004122;28;20479;-77
2024/01/18 03:00:13;;;;;;;2.58;1.45;;;-3.10;99.90;;;;;;4988146;28;20084;-77
2024/01/18 03:02:38;;;;;;;1.75;1.33;;;-3.00;99.90;;;;;;4979019;28;20051;-76
2024/01/18 03:05:05;;;;;;;9.13;3.15;;;-3.10;99.90;;;;;;4988171;28;20474;-77
2024/01/18 03:07:31;;;;;;;3.00;2.10;;;-3.10;99.90;;;;;;5026751;28;20041;-76
2024/01/18 03:09:57;;;;;;;10.52;1.25;;;-3.10;99.90;;;;;;5022028;28;20048;-77
2024/01/18 03:12:22;;;;;;;1.90;1.05;;;-3.10;99.90;;;;;;4986867;28;20060;-76
2024/01/18 03:14:48;;;;;;;2.15;1.63;;;-3.10;99.90;;;;;;5004804;28;20049;-77
2024/01/18 03:17:14;;;;;;;1.67;1.27;;;-3.10;99.90;;;;;;5003910;28;20041;-77
2024/01/18 03:19:39;;;;;;;5.80;2.00;;;-3.20;99.90;;;;;;5035300;28;20060;-77
2024/01/18 03:22:05;;;;;;;4.90;1.70;;;-3.20;99.90;;;;;;5004209;28;20136;-77
2024/01/18 03:24:31;;;;;;;4.47;1.58;;;-3.20;99.90;;;;;;5019601;28;20060;-76
2024/01/18 03:26:57;;;;;;;3.10;1.05;;;-3.30;99.90;;;;;;4988167;28;20147;-77
2024/01/18 03:29:22;;;;;;;2.83;1.50;;;-3.20;99.90;;;;;;5004593;28;20037;-76
2024/01/18 03:31:48;;;;;;;1.52;1.08;;;-3.30;99.90;;;;;;5022702;28;20105;-77
2024/01/18 03:34:13;;;;;;;2.13;1.40;;;-3.30;99.90;;;;;;5015088;28;20037;-77
2024/01/18 03:36:39;;;;;;;2.30;0.85;;;-3.20;99.90;;;;;;5001597;28;20101;-77
2024/01/18 03:39:06;;;;;;;3.55;1.42;;;-3.20;99.90;;;;;;4997445;28;20102;-77
2024/01/18 03:41:32;;;;;;;2.30;1.48;;;-3.30;99.90;;;;;;5014302;28;20041;-77
2024/01/18 03:43:58;;;;;;;5.97;1.27;;;-3.30;99.90;;;;;;4999950;28;20044;-76
2024/01/18 03:46:24;;;;;;;5.43;1.25;;;-3.30;99.90;;;;;;4983608;28;20037;-76
2024/01/18 03:48:49;;;;;;;3.63;1.60;;;-3.30;99.90;;;;;;5009608;28;20110;-77
2024/01/18 03:51:15;;;;;;;0.73;0.68;;;-3.30;99.90;;;;;;5003703;28;20045;-77
2024/01/18 03:53:44;;;;;;;1.60;1.50;;;-3.30;99.90;;;;;;5030198;28;20069;-77
2024/01/18 03:56:12;;;;;;;4.57;1.52;;;-3.30;99.90;;;;;;5021001;28;20041;-77
2024/01/18 03:58:38;;;;;;;2.97;1.88;;;-3.30;99.90;;;;;;5039653;28;20061;-77
2024/01/18 04:01:04;;;;;;;1.98;1.80;;;-3.30;99.90;;;;;;5003663;28;20087;-77
2024/01/18 04:03:30;;;;;;;2.35;1.20;;;-3.30;99.90;;;;;;5032766;28;20041;-77
2024/01/18 04:05:56;;;;;;;7.65;1.40;;;-3.30;99.90;;;;;;5001639;28;20068;-76
2024/01/18 04:08:21;;;;;;;1.75;1.50;;;-3.30;99.90;;;;;;5000352;28;20046;-77
2024/01/18 04:10:47;;;;;;;2.38;1.23;;;-3.30;99.90;;;;;;5033153;28;20081;-77
2024/01/18 04:13:13;;;;;;;4.22;2.20;;;-3.30;99.90;;;;;;5002291;28;20041;-76
2024/01/18 04:15:38;;;;;;;3.63;1.75;;;-3.30;99.90;;;;;;5030467;28;20046;-77
2024/01/18 04:18:04;;;;;;;6.47;3.22;;;-3.30;99.90;;;;;;5021528;28;20049;-76
2024/01/18 04:20:30;;;;;;;9.45;2.08;;;-3.40;99.90;;;;;;5016800;28;20045;-77
2024/01/18 04:22:56;;;;;;;2.47;1.48;;;-3.30;99.90;;;;;;5000689;28;20073;-77
2024/01/18 04:25:22;;;;;;;2.08;1.80;;;-3.40;99.90;;;;;;5014839;28;20056;-76
2024/01/18 04:27:47;;;;;;;5.10;2.20;;;-3.40;99.90;;;;;;4991959;28;20485;-76
2024/01/18 04:30:13;;;;;;;2.42;1.42;;;-3.30;99.90;;;;;;4984894;28;20137;-77
2024/01/18 04:32:40;;;;;;;0.70;0.70;;;-3.30;99.90;;;;;;5018095;28;20041;-76
2024/01/18 04:35:06;;;;;;;1.65;1.42;;;-3.30;99.90;;;;;;5016016;28;20119;-77
2024/01/18 04:37:31;;;;;;;2.70;2.00;;;-3.20;99.90;;;;;;5032690;28;20072;-77
2024/01/18 04:39:57;;;;;;;0.65;0.65;;;-3.20;99.90;;;;;;5016238;28;20030;-77
2024/01/18 04:42:23;;;;;;;1.15;1.02;;;-3.20;99.90;;;;;;5014782;28;20044;-77
2024/01/18 04:44:48;;;;;;;0.90;0.82;;;-3.10;99.90;;;;;;5000713;28;20099;-77
2024/01/18 04:47:14;;;;;;;2.22;0.60;;;-3.00;99.90;;;;;;5001775;28;20038;-77
2024/01/18 04:49:40;;;;;;;1.75;0.85;;;-2.80;99.90;;;;;;4999602;28;20046;-77
2024/01/18 04:52:05;;;;;;;1.27;1.10;;;-2.70;99.90;;;;;;5015705;28;20057;-77
2024/01/18 04:54:32;;;;;;;0.65;0.65;;;-2.60;99.90;;;;;;5034803;28;20472;-77
2024/01/18 04:56:58;;;;;;;0.68;0.68;;;-2.50;99.90;;;;;;5013609;28;20050;-77
2024/01/18 04:59:24;;;;;;;0.95;0.90;;;-2.60;99.90;;;;;;4985989;28;20128;-77
2024/01/18 05:01:50;;;;;;;1.90;0.95;;;-2.60;99.90;;;;;;5055084;28;20135;-77
2024/01/18 05:04:18;;;;;;;0.70;0.70;;;-2.70;99.90;;;;;;5016285;28;20046;-77
2024/01/18 05:06:44;;;;;;;1.27;0.82;;;-2.70;99.90;;;;;;5030705;28;20045;-77
2024/01/18 05:09:10;;;;;;;5.93;0.82;;;-2.80;99.90;;;;;;5002034;28;20037;-76
2024/01/18 05:11:35;;;;;;;1.70;0.85;;;-2.90;99.90;;;;;;5005004;28;20111;-77
2024/01/18 05:14:01;;;;;;;0.60;0.55;;;-2.90;99.90;;;;;;5006694;28;20080;-77
2024/01/18 05:16:27;;;;;;;3.40;1.17;;;-3.00;99.90;;;;;;5021051;28;20045;-77
2024/01/18 05:18:52;;;;;;;1.58;0.85;;;-3.10;99.90;;;;;;5038563;28;20041;-77
2024/01/18 05:21:18;;;;;;;1.35;0.98;;;-3.10;99.90;;;;;;5021947;28;20065;-77
2024/01/18 05:23:46;;;;;;;1.08;0.98;;;-3.10;99.90;;;;;;4989110;28;20029;-77
2024/01/18 05:26:12;;;;;;;0.85;0.50;;;-3.10;99.90;;;;;;5003016;28;20081;-76
2024/01/18 05:28:38;;;;;;;1.38;1.05;;;-3.10;99.90;;;;;;5001288;28;20029;-77
2024/01/18 05:31:04;;;;;;;2.92;1.25;;;-3.10;99.90;;;;;;5001623;28;20049;-77
2024/01/18 05:33:29;;;;;;;4.35;2.55;;;-3.10;99.90;;;;;;5005082;28;20426;-77
2024/01/18 05:35:55;;;;;;;1.27;0.98;;;-3.20;99.90;;;;;;4999695;28;20044;-76
2024/01/18 05:38:20;;;;;;;43.15;22.63;;;-3.10;99.90;;;;;;4978390;28;20041;-76
2024/01/18 05:40:46;;;;;;;5.82;2.20;;;-3.20;99.90;;;;;;5030230;28;20489;-76
2024/01/18 05:43:12;;;;;;;2.50;1.70;;;-3.20;99.90;;;;;;4996822;28;20087;-76
2024/01/18 05:45:38;;;;;;;0.75;0.60;;;-3.20;99.90;;;;;;5014721;28;20053;-77
2024/01/18 05:48:04;;;;;;;0.70;0.70;;;-3.20;99.90;;;;;;5018203;28;20067;-76
2024/01/18 05:50:30;;;;;;;0.20;0.20;;;-3.20;99.90;;;;;;4999918;28;20052;-77
2024/01/18 05:52:56;;;;;;;3.70;1.00;;;-3.20;99.90;;;;;;4998806;28;20049;-76
2024/01/18 05:55:22;;;;;;;1.00;1.00;;;-3.20;99.90;;;;;;5014246;28;20045;-76
2024/01/18 05:57:47;;;;;;;0.93;0.47;;;-3.20;99.90;;;;;;4998402;28;20041;-76
2024/01/18 06:00:13;;;;;;;0.82;0.82;;;-3.20;99.90;;;;;;5001987;28;20040;-76
2024/01/18 06:02:39;;;;;;;1.85;0.55;;;-3.30;99.90;;;;;;4997597;28;20037;-76
2024/01/18 06:05:06;;;;;;;0.57;0.38;;;-3.30;99.90;;;;;;5014482;28;20159;-76
2024/01/18 06:07:33;;;;;;;3.15;0.68;;;-3.30;99.90;;;;;;4998800;28;20042;-76
2024/01/18 06:09:59;;;;;;;0.40;0.30;;;-3.30;99.90;;;;;;5016275;28;20380;-76
2024/01/18 06:12:25;;;;;;;0.28;0.28;;;-3.30;99.90;;;;;;5021550;28;20107;-76
2024/01/18 06:14:50;;;;;;;1.00;0.65;;;-3.30;99.90;;;;;;5015173;28;20068;-76
2024/01/18 06:17:16;;;;;;;0.30;0.30;;;-3.20;99.90;;;;;;4999363;28;20124;-76
2024/01/18 06:19:42;;;;;;;0.52;0.40;;;-3.30;99.90;;;;;;5014446;28;20108;-76
2024/01/18 06:22:07;;;;;;;1.45;0.50;;;-3.30;99.90;;;;;;5000772;28;20033;-76
2024/01/18 06:24:33;;;;;;;3.28;0.52;;;-3.30;99.90;;;;;;4995040;28;20049;-77
2024/01/18 06:26:59;;;;;;;0.93;0.60;;;-3.30;99.90;;;;;;4998951;28;20057;-77
2024/01/18 06:29:29;;;;;;;0.55;0.55;;;-3.30;99.90;;;;;;5029948;28;20093;-76
2024/01/18 06:31:54;;;;;;;0.68;0.40;;;-3.40;99.90;;;;;;4998641;28;20089;-77
2024/01/18 06:34:20;;;;;;;0.47;0.45;;;-3.40;99.90;;;;;;5001593;28;20060;-76
2024/01/18 06:36:46;;;;;;;3.08;0.60;;;-3.40;99.90;;;;;;4998369;28;20129;-77
2024/01/18 06:39:11;;;;;;;0.82;0.82;;;-3.40;99.90;;;;;;5000076;28;20037;-76
2024/01/18 06:41:37;;;;;;;6.90;0.90;;;-3.40;99.90;;;;;;4996466;28;20057;-77
2024/01/18 06:44:04;;;;;;;2.50;0.65;;;-3.50;99.90;;;;;;4981517;28;20092;-76
2024/01/18 06:46:31;;;;;;;2.55;0.95;;;-3.50;99.90;;;;;;5029817;28;20064;-76
2024/01/18 06:48:57;;;;;;;0.90;0.55;;;-3.50;99.90;;;;;;5017410;28;20065;-77
2024/01/18 06:51:23;;;;;;;1.55;0.77;;;-3.60;99.90;;;;;;5007815;28;20060;-77
2024/01/18 06:53:52;;;;;;;2.10;0.40;;;-3.60;99.90;;;;;;5013965;28;20104;-77
2024/01/18 06:56:18;;;;;;;0.40;0.40;;;-3.60;99.90;;;;;;5012633;28;20606;-76
2024/01/18 06:58:44;;;;;;;0.25;0.25;;;-3.60;99.90;;;;;;4982417;28;20033;-77
2024/01/18 07:01:10;;;;;;;1.17;0.70;;;-3.60;99.90;;;;;;5016357;28;20777;-76
2024/01/18 07:03:36;;;;;;;2.20;0.73;;;-3.70;99.90;;;;;;4994962;28;20065;-77
2024/01/18 07:06:03;;;;;;;0.52;0.52;;;-3.60;99.90;;;;;;5006216;28;20049;-76
2024/01/18 07:08:29;;;;;;;0.75;0.60;;;-3.70;99.90;;;;;;4989527;28;20045;-76
2024/01/18 07:10:55;;;;;;;0.35;0.35;;;-3.70;99.90;;;;;;5017460;28;20045;-77
2024/01/18 07:13:21;;;;;;;0.10;0.10;;;-3.60;99.90;;;;;;5017724;28;20633;-76
2024/01/18 07:15:47;;;;;;;2.47;1.27;;;-3.60;99.90;;;;;;4998999;28;20044;-76
2024/01/18 07:18:12;;;;;;;4.95;0.43;;;-3.60;99.90;;;;;;5004143;28;20041;-76
2024/01/18 07:20:38;;;;;;;1.05;0.80;;;-3.60;99.90;;;;;;4981839;28;20072;-76
2024/01/18 07:23:04;;;;;;;0.75;0.50;;;-3.60;99.90;;;;;;5021327;28;20213;-76
2024/01/18 07:25:31;;;;;;;0.68;0.68;;;-3.60;99.90;;;;;;5000749;28;20058;-76
2024/01/18 07:27:57;;;;;;;0.50;0.50;;;-3.60;99.90;;;;;;5017436;28;20048;-77
2024/01/18 07:30:23;;;;;;;0.30;0.30;;;-3.70;99.90;;;;;;5032391;28;20084;-77
2024/01/18 07:32:49;;;;;;;0.30;0.30;;;-3.60;99.90;;;;;;5016861;28;21606;-77
2024/01/18 07:35:15;;;;;;;0.50;0.22;;;-3.60;99.90;;;;;;5002097;28;20046;-77
2024/01/18 07:37:41;;;;;;;0.40;0.40;;;-3.60;99.90;;;;;;5022217;28;20479;-77
2024/01/18 07:40:07;;;;;;;6.88;1.00;;;-3.60;99.90;;;;;;5024935;28;20048;-77
2024/01/18 07:42:33;;;;;;;3.03;0.32;;;-3.70;99.90;;;;;;5023406;28;20460;-77
2024/01/18 07:44:58;;;;;;;0.50;0.32;;;-3.70;99.90;;;;;;5003881;28;20026;-77
2024/01/18 07:47:25;;;;;;;1.92;0.98;;;-3.70;99.90;;;;;;5019320;28;20056;-77
2024/01/18 07:49:51;;;;;;;0.52;0.47;;;-3.80;99.90;;;;;;5007287;28;20045;-76
2024/01/18 07:52:20;;;;;;;0.45;0.45;;;-3.80;99.90;;;;;;5024631;28;20041;-76
2024/01/18 07:54:49;;;;;;;0.32;0.30;;;-3.80;99.90;;;;;;5036176;28;20041;-77
2024/01/18 07:57:14;;;;;;;2.63;1.25;;;-3.80;99.90;;;;;;5028450;28;20042;-77
2024/01/18 07:59:40;;;;;;;1.20;0.93;;;-3.70;99.90;;;;;;5006789;28;20087;-77
2024/01/18 08:02:06;;;;;;;0.50;0.50;;;-3.70;99.90;;;;;;5023572;28;20477;-77
2024/01/18 08:04:32;;;;;;;2.88;1.25;;;-3.70;99.90;;;;;;4986550;28;20045;-77
2024/01/18 08:06:57;;;;;;;0.95;0.73;;;-3.70;99.90;;;;;;4982433;28;20701;-77
2024/01/18 08:09:23;;;;;;;1.98;1.48;;;-3.70;99.90;;;;;;5017600;28;20049;-77
2024/01/18 08:11:49;;;;;;;0.95;0.50;;;-3.60;99.90;;;;;;4998730;28;20501;-77
2024/01/18 08:14:15;;;;;;;5.85;1.48;;;-3.60;99.90;;;;;;4992322;28;20042;-77
2024/01/18 08:16:40;;;;;;;9.32;0.70;;;-3.50;99.90;;;;;;4996841;28;20152;-77
2024/01/18 08:19:07;;;;;;;0.50;0.50;;;-3.50;99.90;;;;;;5001991;28;20049;-77
2024/01/18 08:21:33;;;;;;;0.40;0.40;;;-3.40;99.90;;;;;;5016721;28;20087;-77
2024/01/18 08:23:58;;;;;;;1.08;0.75;;;-3.30;99.90;;;;;;5016514;28;20049;-77
2024/01/18 08:26:24;;;;;;;0.75;0.50;;;-3.30;99.90;;;;;;5001158;28;20050;-76
2024/01/18 08:28:50;;;;;;;1.23;0.30;;;-3.30;99.90;;;;;;5001544;28;20053;-77
2024/01/18 08:31:16;;;;;;;1.75;0.90;;;-3.20;99.90;;;;;;4988338;28;20041;-76
2024/01/18 08:33:41;;;;;;;1.15;0.63;;;-3.20;99.90;;;;;;5001308;28;20041;-77
2024/01/18 08:36:08;;;;;;;0.35;0.20;;;-3.00;99.90;;;;;;5000743;28;20065;-76
2024/01/18 08:38:34;;;;;;;0.68;0.57;;;-2.80;99.90;;;;;;4983434;28;20049;-76
2024/01/18 08:41:00;;;;;;;0.28;0.28;;;-2.80;99.90;;;;;;5034695;28;20033;-76
2024/01/18 08:43:27;;;;;;;0.40;0.40;;;-2.70;99.90;;;;;;4984704;28;20049;-76
2024/01/18 08:45:56;;;;;;;0.90;0.30;;;-2.60;99.90;;;;;;5032616;28;20053;-76
2024/01/18 08:48:22;;;;;;;1.08;0.77;;;-2.40;99.90;;;;;;5017578;28;20099;-76
2024/01/18 08:50:47;;;;;;;5.13;0.52;;;-2.50;99.90;;;;;;5015792;28;20556;-76
2024/01/18 08:53:13;;;;;;;2.42;0.90;;;-2.40;99.90;;;;;;5012252;28;20033;-76
2024/01/18 08:55:41;;;;;;;1.42;1.33;;;-2.30;99.90;;;;;;5035342;28;20057;-78
2024/01/18 08:58:07;;;;;;;1.13;1.10;;;-2.10;99.90;;;;;;5021610;28;20037;-78
2024/01/18 09:00:33;;;;;;;3.72;1.15;;;-2.00;99.90;;;;;;5039073;28;20450;-77
2024/01/18 09:03:00;;;;;;;0.30;0.30;;;-1.90;99.90;;;;;;5022863;28;20072;-77
2024/01/18 09:05:26;;;;;;;0.70;0.70;;;-1.80;99.90;;;;;;5023361;28;20045;-77
2024/01/18 09:07:52;;;;;;;1.10;1.00;;;-1.80;99.90;;;;;;5021976;28;20594;-77
2024/01/18 09:10:19;;;;;;;0.95;0.57;;;-1.50;99.90;;;;;;5002982;28;20050;-77
2024/01/18 09:12:45;;;;;;;0.50;0.47;;;-1.30;99.90;;;;;;5015890;28;20046;-77
2024/01/18 09:15:12;;;;;;;0.55;0.47;;;-1.00;99.90;;;;;;5038644;28;20052;-77
2024/01/18 09:17:37;;;;;;;0.47;0.47;;;-0.80;99.90;;;;;;5036291;28;20081;-77
2024/01/18 09:20:04;;;;;;;2.55;1.25;;;-0.70;99.90;;;;;;5004278;28;20045;-77
2024/01/18 09:22:30;;;;;;;0.55;0.50;;;-0.50;99.90;;;;;;5014624;28;20085;-77
2024/01/18 09:24:56;;;;;;;2.95;0.75;;;-0.40;99.90;;;;;;5003600;28;20061;-76
2024/01/18 09:27:22;;;;;;;1.48;0.73;;;-0.20;99.90;;;;;;5006327;28;20432;-77
2024/01/18 09:29:48;;;;;;;0.45;0.20;;;-0.10;99.90;;;;;;4996012;28;20049;-76
2024/01/18 09:32:15;;;;;;;0.35;0.35;;;0.00;99.90;;;;;;5023168;28;20105;-77
2024/01/18 09:34:41;;;;;;;0.93;0.43;;;0.10;99.90;;;;;;4998280;28;20079;-77
2024/01/18 09:37:06;;;;;;;0.50;0.47;;;0.30;99.90;;;;;;5005091;28;20096;-78
2024/01/18 09:39:32;;;;;;;0.20;0.20;;;0.60;99.90;;;;;;5022922;28;20057;-77
2024/01/18 09:41:58;;;;;;;1.30;0.45;;;1.00;99.90;;;;;;5020713;28;20087;-77
2024/01/18 09:44:31;;;;;;;0.20;0.20;;;1.50;99.90;;;;;;5022767;28;20582;-77
2024/01/18 09:46:59;;;;;;;11.25;0.82;;;2.10;99.90;;;;;;5034759;28;20220;-77
2024/01/18 09:49:27;;;;;;;5.13;1.85;;;2.70;99.90;;;;;;5038191;28;20045;-77
2024/01/18 09:51:55;;;;;;;0.55;0.45;;;3.10;99.90;;;;;;5006545;28;20080;-76
2024/01/18 09:54:21;;;;;;;0.68;0.30;;;3.40;99.90;;;;;;5004782;28;20041;-76
2024/01/18 09:56:51;;;;;;;11.63;0.68;;;3.60;99.90;;;;;;5022807;28;20056;-76
2024/01/18 09:59:18;;;;;;;1.00;0.50;;;3.80;99.90;;;;;;5037792;28;20053;-76
2024/01/18 10:01:47;;;;;;;1.60;0.95;;;4.10;99.90;;;;;;5006063;28;20055;-76
2024/01/18 10:04:17;;;;;;;4.22;1.00;;;4.30;99.90;;;;;;5037515;28;20108;-76
2024/01/18 10:06:42;;;;;;;0.47;0.45;;;4.50;99.90;;;;;;5005391;28;20099;-76
2024/01/18 10:09:14;;;;;;;1.77;0.90;;;4.70;99.90;;;;;;5006199;28;20045;-76
2024/01/18 10:11:46;;;;;;;1.30;0.77;;;4.50;99.90;;;;;;5037046;28;20123;-76
2024/01/18 10:14:12;;;;;;;2.28;0.57;;;4.20;99.90;;;;;;5006310;28;20052;-76
2024/01/18 10:16:39;;;;;;;2.15;0.90;;;3.80;99.90;;;;;;5005136;28;20448;-75
2024/01/18 10:19:18;;;;;;;1.42;1.08;;;3.40;99.90;;;;;;5021766;28;20043;-76
2024/01/18 10:21:47;;;;;;;3.88;1.17;;;2.90;99.90;;;;;;5021840;28;20037;-75
2024/01/18 10:24:13;;;;;;;1.45;0.98;;;2.50;99.90;;;;;;5020167;28;20424;-75
2024/01/18 10:26:40;;;;;;;12.38;2.35;;;2.20;99.90;;;;;;5005997;28;20068;-76
2024/01/18 10:29:09;;;;;;;3.42;1.15;;;2.00;99.90;;;;;;5016591;28;20113;-75
2024/01/18 10:31:39;;;;;;;2.67;1.00;;;1.80;99.90;;;;;;5032924;28;20037;-75
2024/01/18 10:34:05;;;;;;;2.92;1.10;;;1.50;99.90;;;;;;5023933;28;20037;-75
2024/01/18 10:36:32;;;;;;;3.10;1.75;;;1.40;99.90;;;;;;5033564;28;20041;-75
2024/01/18 10:38:57;;;;;;;6.95;1.73;;;1.40;99.90;;;;;;4993676;28;20053;-75
2024/01/18 10:41:23;;;;;;;5.40;1.58;;;1.30;99.90;;;;;;5026198;28;20053;-75
2024/01/18 10:43:49;;;;;;;1.85;1.13;;;1.30;99.90;;;;;;5022595;28;20313;-75
2024/01/18 10:46:15;;;;;;;3.03;1.33;;;1.30;99.90;;;;;;5003907;28;20041;-75
2024/01/18 10:48:46;;;;;;;6.20;1.00;;;1.40;99.90;;;;;;5022245;28;20085;-75
2024/01/18 10:51:12;;;;;;;1.00;0.90;;;1.30;99.90;;;;;;5021284;28;20041;-75
2024/01/18 10:53:38;;;;;;;0.63;0.52;;;1.30;99.90;;;;;;5024724;28;20053;-75
2024/01/18 10:56:04;;;;;;;2.13;0.85;;;1.30;99.90;;;;;;5021082;28;20049;-75
2024/01/18 10:58:31;;;;;;;0.40;0.40;;;1.30;99.90;;;;;;5020534;28;20042;-75
2024/01/18 11:00:57;;;;;;;0.57;0.38;;;1.30;99.90;;;;;;5038742;28;20412;-75
2024/01/18 11:03:23;;;;;;;3.67;0.70;;;1.40;99.90;;;;;;5003605;28;20041;-75
2024/01/18 11:05:49;;;;;;;2.75;0.82;;;1.40;99.90;;;;;;5021101;28;20048;-75
2024/01/18 11:08:19;;;;;;;0.35;0.35;;;1.50;99.90;;;;;;5020774;28;20080;-75
2024/01/18 11:10:48;;;;;;;0.30;0.30;;;1.60;99.90;;;;;;5031287;28;20128;-75
2024/01/18 11:13:15;;;;;;;2.05;0.77;;;1.60;99.90;;;;;;5030886;28;20458;-74
2024/01/18 11:15:44;;;;;;;3.90;0.95;;;1.70;99.90;;;;;;5036439;28;20539;-75
2024/01/18 11:18:14;;;;;;;0.50;0.20;;;1.80;99.90;;;;;;5011126;28;20057;-75
2024/01/18 11:20:58;;;;;;;1.48;0.57;;;1.90;99.90;;;;;;5018578;28;20037;-74
2024/01/18 11:23:29;;;;;;;0.52;0.40;;;2.20;99.90;;;;;;5020968;28;20072;-74
2024/01/18 11:25:55;;;;;;;0.38;0.38;;;2.40;99.90;;;;;;5037424;28;20042;-74
2024/01/18 11:28:25;;;;;;;4.38;0.60;;;2.60;99.90;;;;;;5020237;28;20057;-74
2024/01/18 11:30:52;;;;;;;4.30;0.98;;;2.70;99.90;;;;;;5006133;28;20044;-74
2024/01/18 11:33:18;;;;;;;0.10;0.10;;;2.70;99.90;;;;;;5019964;28;20048;-74
2024/01/18 11:35:44;;;;;;;3.78;0.32;;;2.60;99.90;;;;;;5012431;28;20042;-74
2024/01/18 11:38:24;;;;;;;0.82;0.52;;;2.60;99.90;;;;;;4994171;28;20038;-74
2024/01/18 11:40:56;;;;;;;0.30;0.20;;;2.60;99.90;;;;;;5036303;28;20088;-75
2024/01/18 11:43:24;;;;;;;0.75;0.40;;;2.60;99.90;;;;;;5021515;28;20041;-74
2024/01/18 11:45:50;;;;;;;1.95;0.25;;;2.60;99.90;;;;;;5019509;28;20057;-74
2024/01/18 11:48:18;;;;;;;2.83;0.90;;;2.50;99.90;;;;;;5005540;28;20052;-74
2024/01/18 11:50:44;;;;;;;0.10;0.10;;;2.50;99.90;;;;;;5038957;28;20049;-74
2024/01/18 11:53:11;;;;;;;1.52;0.57;;;2.60;99.90;;;;;;5042265;28;20056;-74
2024/01/18 11:55:44;;;;;;;0.28;0.22;;;2.70;99.90;;;;;;5008009;28;20056;-74
2024/01/18 11:58:10;;;;;;;0.77;0.32;;;2.70;99.90;;;;;;5023149;28;20052;-74
2024/01/18 12:00:36;;;;;;;4.07;0.70;;;2.80;99.90;;;;;;5025045;28;20050;-74
2024/01/18 12:03:07;;;;;;;2.22;0.55;;;2.90;99.90;;;;;;5022961;28;20176;-74
2024/01/18 12:05:35;;;;;;;0.65;0.10;;;2.90;99.90;;;;;;5008777;28;20045;-74
2024/01/18 12:08:00;;;;;;;0.35;0.35;;;2.80;99.90;;;;;;5023354;28;20630;-74
2024/01/18 12:10:26;;;;;;;1.75;0.10;;;2.90;99.90;;;;;;5007896;28;20093;-74
2024/01/18 12:12:53;;;;;;;0.63;0.20;;;3.00;99.90;;;;;;5040384;28;20519;-74
2024/01/18 12:15:19;;;;;;;0.75;0.20;;;3.00;99.90;;;;;;5021560;28;20076;-74
2024/01/18 12:17:46;;;;;;;0.60;0.30;;;3.10;99.90;;;;;;5012665;28;20038;-74
2024/01/18 12:20:16;;;;;;;0.40;0.30;;;3.10;99.90;;;;;;5005932;28;20125;-74
2024/01/18 12:22:43;;;;;;;1.45;0.35;;;3.10;99.90;;;;;;5024900;28;20045;-74
2024/01/18 12:25:09;;;;;;;0.47;0.40;;;3.10;99.90;;;;;;5039463;28;20054;-73
2024/01/18 12:27:36;;;;;;;0.20;0.20;;;3.00;99.90;;;;;;5007298;28;20081;-74
2024/01/18 12:30:03;;;;;;;0.40;0.22;;;2.90;99.90;;;;;;5023443;28;20052;-74
2024/01/18 12:32:29;;;;;;;1.92;0.40;;;2.70;99.90;;;;;;5023081;28;20041;-74
2024/01/18 12:34:59;;;;;;;0.20;0.20;;;2.50;99.90;;;;;;5007497;28;20052;-74
2024/01/18 12:37:25;;;;;;;0.63;0.30;;;2.30;99.90;;;;;;5006522;28;20041;-74
2024/01/18 12:39:51;;;;;;;0.10;0.10;;;2.10;99.90;;;;;;5024180;28;20132;-73
2024/01/18 12:42:17;;;;;;;0.65;0.50;;;2.10;99.90;;;;;;5006307;28;20042;-74
2024/01/18 12:44:43;;;;;;;0.90;0.35;;;2.00;99.90;;;;;;5023639;28;20475;-73